sensor_id;sensor_type;location;lat;lon;timestamp;pressure;altitude;pressure_sealevel;temperature
74485;BMP280;62942;52.462;10.846;2023-12-04T00:01:06;101140;;;
74485;BMP280;62942;52.462;10.846;2023-12-04T00:02:06;101150;;;
74485;BMP280;62942;52.462;10.846;2023-12-04T00:03:16;101140;;;
74485;BMP280;62942;52.462;10.846;2023-12-04T00:04:16;101140;;;
74485;BMP280;62942;52.462;10.846;2023-12-04T00:05:26;101150;;;
74485;BMP280;62942;52.462;10.846;2023-12-04T00:06:26;101150;;;
74485;BMP280;62942;52.462;10.846;2023-12-04T00:07:36;101140;;;
74485;BMP280;62942;52.462;10.846;2023-12-04T00:08:36;101140;;;
74485;BMP280;62942;52.462;10.846;2023-12-04T00:09:46;101140;;;
74485;BMP280;62942;52.462;10.846;2023-12-04T00:10:46;101140;;;
74485;BMP280;62942;52.462;10.846;2023-12-04T00:11:56;101130;;;
74485;BMP280;62942;52.462;10.846;2023-12-04T00:12:56;101140;;;
74485;BMP280;62942;52.462;10.846;2023-12-04T00:13:56;101140;;;
74485;BMP280;62942;52.462;10.846;2023-12-04T00:15:06;101130;;;
74485;BMP280;62942;52.462;10.846;2023-12-04T00:16:06;101140;;;
74485;BMP280;62942;52.462;10.846;2023-12-04T00:17:16;101130;;;
74485;BMP280;62942;52.462;10.846;2023-12-04T00:18:16;101130;;;
74485;BMP280;62942;52.462;10.846;2023-12-04T00:19:26;101140;;;
74485;BMP280;62942;52.462;10.846;2023-12-04T00:20:26;101130;;;
74485;BMP280;62942;52.462;10.846;2023-12-04T00:21:27;101130;;;
74485;BMP280;62942;52.462;10.846;2023-12-04T00:22:36;101130;;;
74485;BMP280;62942;52.462;10.846;2023-12-04T00:23:46;101130;;;
74485;BMP280;62942;52.462;10.846;2023-12-04T00:24:46;101130;;;
74485;BMP280;62942;52.462;10.846;2023-12-04T00:25:46;101120;;;
74485;BMP280;62942;52.462;10.846;2023-12-04T00:26:56;101120;;;
74485;BMP280;62942;52.462;10.846;2023-12-04T00:27:56;101120;;;
74485;BMP280;62942;52.462;10.846;2023-12-04T00:29:06;101110;;;
74485;BMP280;62942;52.462;10.846;2023-12-04T00:30:16;101110;;;
74485;BMP280;62942;52.462;10.846;2023-12-04T00:31:16;101120;;;
74485;BMP280;62942;52.462;10.846;2023-12-04T00:32:26;101120;;;
74485;BMP280;62942;52.462;10.846;2023-12-04T00:33:36;101110;;;
74485;BMP280;62942;52.462;10.846;2023-12-04T00:34:36;101120;;;
74485;BMP280;62942;52.462;10.846;2023-12-04T00:35:46;101120;;;
74485;BMP280;62942;52.462;10.846;2023-12-04T00:36:56;101120;;;
74485;BMP280;62942;52.462;10.846;2023-12-04T00:37:56;101110;;;
74485;BMP280;62942;52.462;10.846;2023-12-04T00:39:06;101110;;;
74485;BMP280;62942;52.462;10.846;2023-12-04T00:40:16;101110;;;
74485;BMP280;62942;52.462;10.846;2023-12-04T00:41:16;101110;;;
74485;BMP280;62942;52.462;10.846;2023-12-04T00:42:26;101110;;;
74485;BMP280;62942;52.462;10.846;2023-12-04T00:43:26;101110;;;
74485;BMP280;62942;52.462;10.846;2023-12-04T00:44:36;101110;;;
74485;BMP280;62942;52.462;10.846;2023-12-04T00:45:46;101100;;;
74485;BMP280;62942;52.462;10.846;2023-12-04T00:46:56;101110;;;
74485;BMP280;62942;52.462;10.846;2023-12-04T00:47:56;101110;;;
74485;BMP280;62942;52.462;10.846;2023-12-04T00:48:56;101110;;;
74485;BMP280;62942;52.462;10.846;2023-12-04T00:50:06;101110;;;
74485;BMP280;62942;52.462;10.846;2023-12-04T00:51:06;101100;;;
74485;BMP280;62942;52.462;10.846;2023-12-04T00:52:16;101090;;;
74485;BMP280;62942;52.462;10.846;2023-12-04T00:53:16;101090;;;
74485;BMP280;62942;52.462;10.846;2023-12-04T00:54:26;101100;;;
74485;BMP280;62942;52.462;10.846;2023-12-04T00:55:26;101100;;;
74485;BMP280;62942;52.462;10.846;2023-12-04T00:56:37;101100;;;
74485;BMP280;62942;52.462;10.846;2023-12-04T00:57:36;101100;;;
74485;BMP280;62942;52.462;10.846;2023-12-04T00:58:46;101090;;;
74485;BMP280;62942;52.462;10.846;2023-12-04T00:59:46;101100;;;
74485;BMP280;62942;52.462;10.846;2023-12-04T01:00:56;101100;;;
74485;BMP280;62942;52.462;10.846;2023-12-04T01:01:56;101090;;;
74485;BMP280;62942;52.462;10.846;2023-12-04T01:03:06;101100;;;
74485;BMP280;62942;52.462;10.846;2023-12-04T01:04:06;101090;;;
74485;BMP280;62942;52.462;10.846;2023-12-04T01:05:16;101080;;;
74485;BMP280;62942;52.462;10.846;2023-12-04T01:06:26;101080;;;
74485;BMP280;62942;52.462;10.846;2023-12-04T01:07:26;101080;;;
74485;BMP280;62942;52.462;10.846;2023-12-04T01:08:26;101070;;;
74485;BMP280;62942;52.462;10.846;2023-12-04T01:09:36;101070;;;
74485;BMP280;62942;52.462;10.846;2023-12-04T01:10:36;101070;;;
74485;BMP280;62942;52.462;10.846;2023-12-04T01:11:46;101070;;;
74485;BMP280;62942;52.462;10.846;2023-12-04T01:12:46;101070;;;
74485;BMP280;62942;52.462;10.846;2023-12-04T01:13:56;101070;;;
74485;BMP280;62942;52.462;10.846;2023-12-04T01:14:56;101070;;;
74485;BMP280;62942;52.462;10.846;2023-12-04T01:16:06;101070;;;
74485;BMP280;62942;52.462;10.846;2023-12-04T01:17:16;101070;;;
74485;BMP280;62942;52.462;10.846;2023-12-04T01:18:16;101070;;;
74485;BMP280;62942;52.462;10.846;2023-12-04T01:19:16;101070;;;
74485;BMP280;62942;52.462;10.846;2023-12-04T01:20:26;101070;;;
74485;BMP280;62942;52.462;10.846;2023-12-04T01:21:36;101060;;;
74485;BMP280;62942;52.462;10.846;2023-12-04T01:22:36;101060;;;
74485;BMP280;62942;52.462;10.846;2023-12-04T01:23:46;101060;;;
74485;BMP280;62942;52.462;10.846;2023-12-04T01:24:56;101050;;;
74485;BMP280;62942;52.462;10.846;2023-12-04T01:25:56;101050;;;
74485;BMP280;62942;52.462;10.846;2023-12-04T01:27:06;101050;;;
74485;BMP280;62942;52.462;10.846;2023-12-04T01:28:06;101050;;;
74485;BMP280;62942;52.462;10.846;2023-12-04T01:29:16;101050;;;
74485;BMP280;62942;52.462;10.846;2023-12-04T01:30:16;101040;;;
74485;BMP280;62942;52.462;10.846;2023-12-04T01:31:26;101040;;;
74485;BMP280;62942;52.462;10.846;2023-12-04T01:32:26;101050;;;
74485;BMP280;62942;52.462;10.846;2023-12-04T01:33:36;101040;;;
74485;BMP280;62942;52.462;10.846;2023-12-04T01:34:36;101040;;;
74485;BMP280;62942;52.462;10.846;2023-12-04T01:35:46;101030;;;
74485;BMP280;62942;52.462;10.846;2023-12-04T01:36:46;101050;;;
74485;BMP280;62942;52.462;10.846;2023-12-04T01:37:56;101040;;;
74485;BMP280;62942;52.462;10.846;2023-12-04T01:39:06;101040;;;
74485;BMP280;62942;52.462;10.846;2023-12-04T01:40:16;101040;;;
74485;BMP280;62942;52.462;10.846;2023-12-04T01:41:16;101040;;;
74485;BMP280;62942;52.462;10.846;2023-12-04T01:42:26;101040;;;
74485;BMP280;62942;52.462;10.846;2023-12-04T01:43:36;101030;;;
74485;BMP280;62942;52.462;10.846;2023-12-04T01:44:46;101040;;;
74485;BMP280;62942;52.462;10.846;2023-12-04T01:45:56;101030;;;
74485;BMP280;62942;52.462;10.846;2023-12-04T01:47:06;101030;;;
74485;BMP280;62942;52.462;10.846;2023-12-04T01:48:17;101040;;;
74485;BMP280;62942;52.462;10.846;2023-12-04T01:49:26;101040;;;
74485;BMP280;62942;52.462;10.846;2023-12-04T01:50:26;101030;;;
74485;BMP280;62942;52.462;10.846;2023-12-04T01:51:36;101030;;;
74485;BMP280;62942;52.462;10.846;2023-12-04T01:52:46;101030;;;
74485;BMP280;62942;52.462;10.846;2023-12-04T01:53:46;101040;;;
74485;BMP280;62942;52.462;10.846;2023-12-04T01:54:56;101030;;;
74485;BMP280;62942;52.462;10.846;2023-12-04T01:56:06;101030;;;
74485;BMP280;62942;52.462;10.846;2023-12-04T01:57:16;101030;;;
74485;BMP280;62942;52.462;10.846;2023-12-04T01:58:16;101030;;;
74485;BMP280;62942;52.462;10.846;2023-12-04T01:59:26;101020;;;
74485;BMP280;62942;52.462;10.846;2023-12-04T02:00:36;101020;;;
74485;BMP280;62942;52.462;10.846;2023-12-04T02:01:46;101020;;;
74485;BMP280;62942;52.462;10.846;2023-12-04T02:02:56;101030;;;
74485;BMP280;62942;52.462;10.846;2023-12-04T02:03:56;101020;;;
74485;BMP280;62942;52.462;10.846;2023-12-04T02:05:06;101030;;;
74485;BMP280;62942;52.462;10.846;2023-12-04T02:06:16;101020;;;
74485;BMP280;62942;52.462;10.846;2023-12-04T02:07:26;101030;;;
74485;BMP280;62942;52.462;10.846;2023-12-04T02:08:26;101020;;;
74485;BMP280;62942;52.462;10.846;2023-12-04T02:09:36;101020;;;
74485;BMP280;62942;52.462;10.846;2023-12-04T02:10:36;101020;;;
74485;BMP280;62942;52.462;10.846;2023-12-04T02:11:46;101020;;;
74485;BMP280;62942;52.462;10.846;2023-12-04T02:12:46;101020;;;
74485;BMP280;62942;52.462;10.846;2023-12-04T02:13:46;101020;;;
74485;BMP280;62942;52.462;10.846;2023-12-04T02:14:56;101010;;;
74485;BMP280;62942;52.462;10.846;2023-12-04T02:16:07;101010;;;
74485;BMP280;62942;52.462;10.846;2023-12-04T02:17:16;101020;;;
74485;BMP280;62942;52.462;10.846;2023-12-04T02:18:26;101010;;;
74485;BMP280;62942;52.462;10.846;2023-12-04T02:19:26;101010;;;
74485;BMP280;62942;52.462;10.846;2023-12-04T02:20:36;101010;;;
74485;BMP280;62942;52.462;10.846;2023-12-04T02:21:46;101010;;;
74485;BMP280;62942;52.462;10.846;2023-12-04T02:22:56;101010;;;
74485;BMP280;62942;52.462;10.846;2023-12-04T02:23:56;101010;;;
74485;BMP280;62942;52.462;10.846;2023-12-04T02:25:06;101000;;;
74485;BMP280;62942;52.462;10.846;2023-12-04T02:26:16;101000;;;
74485;BMP280;62942;52.462;10.846;2023-12-04T02:27:26;101000;;;
74485;BMP280;62942;52.462;10.846;2023-12-04T02:28:36;101000;;;
74485;BMP280;62942;52.462;10.846;2023-12-04T02:29:46;100990;;;
74485;BMP280;62942;52.462;10.846;2023-12-04T02:30:46;100990;;;
74485;BMP280;62942;52.462;10.846;2023-12-04T02:31:56;100990;;;
74485;BMP280;62942;52.462;10.846;2023-12-04T02:33:06;101000;;;
74485;BMP280;62942;52.462;10.846;2023-12-04T02:34:06;100990;;;
74485;BMP280;62942;52.462;10.846;2023-12-04T02:35:16;100980;;;
74485;BMP280;62942;52.462;10.846;2023-12-04T02:36:26;100980;;;
74485;BMP280;62942;52.462;10.846;2023-12-04T02:37:26;100970;;;
74485;BMP280;62942;52.462;10.846;2023-12-04T02:38:36;100980;;;
74485;BMP280;62942;52.462;10.846;2023-12-04T02:39:36;100980;;;
74485;BMP280;62942;52.462;10.846;2023-12-04T02:40:46;100980;;;
74485;BMP280;62942;52.462;10.846;2023-12-04T02:41:46;100980;;;
74485;BMP280;62942;52.462;10.846;2023-12-04T02:42:56;100980;;;
74485;BMP280;62942;52.462;10.846;2023-12-04T02:43:56;100980;;;
74485;BMP280;62942;52.462;10.846;2023-12-04T02:45:06;100980;;;
74485;BMP280;62942;52.462;10.846;2023-12-04T02:46:06;100980;;;
74485;BMP280;62942;52.462;10.846;2023-12-04T02:47:16;100980;;;
74485;BMP280;62942;52.462;10.846;2023-12-04T02:48:16;100980;;;
74485;BMP280;62942;52.462;10.846;2023-12-04T02:49:26;100980;;;
74485;BMP280;62942;52.462;10.846;2023-12-04T02:50:36;100980;;;
74485;BMP280;62942;52.462;10.846;2023-12-04T02:51:46;100970;;;
74485;BMP280;62942;52.462;10.846;2023-12-04T02:52:56;100980;;;
74485;BMP280;62942;52.462;10.846;2023-12-04T02:54:06;100970;;;
74485;BMP280;62942;52.462;10.846;2023-12-04T02:55:06;100980;;;
74485;BMP280;62942;52.462;10.846;2023-12-04T02:56:16;100970;;;
74485;BMP280;62942;52.462;10.846;2023-12-04T02:57:16;100970;;;
74485;BMP280;62942;52.462;10.846;2023-12-04T02:58:16;100970;;;
74485;BMP280;62942;52.462;10.846;2023-12-04T02:59:26;100970;;;
74485;BMP280;62942;52.462;10.846;2023-12-04T03:00:36;100960;;;
74485;BMP280;62942;52.462;10.846;2023-12-04T03:01:36;100970;;;
74485;BMP280;62942;52.462;10.846;2023-12-04T03:02:36;100970;;;
74485;BMP280;62942;52.462;10.846;2023-12-04T03:03:46;100970;;;
74485;BMP280;62942;52.462;10.846;2023-12-04T03:04:56;100970;;;
74485;BMP280;62942;52.462;10.846;2023-12-04T03:05:56;100970;;;
74485;BMP280;62942;52.462;10.846;2023-12-04T03:07:06;100960;;;
74485;BMP280;62942;52.462;10.846;2023-12-04T03:08:16;100960;;;
74485;BMP280;62942;52.462;10.846;2023-12-04T03:09:16;100960;;;
74485;BMP280;62942;52.462;10.846;2023-12-04T03:10:26;100960;;;
74485;BMP280;62942;52.462;10.846;2023-12-04T03:11:38;100960;;;
74485;BMP280;62942;52.462;10.846;2023-12-04T03:12:36;100960;;;
74485;BMP280;62942;52.462;10.846;2023-12-04T03:13:36;100970;;;
74485;BMP280;62942;52.462;10.846;2023-12-04T03:14:46;100960;;;
74485;BMP280;62942;52.462;10.846;2023-12-04T03:15:46;100960;;;
74485;BMP280;62942;52.462;10.846;2023-12-04T03:16:56;100960;;;
74485;BMP280;62942;52.462;10.846;2023-12-04T03:18:06;100950;;;
74485;BMP280;62942;52.462;10.846;2023-12-04T03:19:16;100950;;;
74485;BMP280;62942;52.462;10.846;2023-12-04T03:20:26;100950;;;
74485;BMP280;62942;52.462;10.846;2023-12-04T03:21:26;100950;;;
74485;BMP280;62942;52.462;10.846;2023-12-04T03:22:36;100940;;;
74485;BMP280;62942;52.462;10.846;2023-12-04T03:23:36;100940;;;
74485;BMP280;62942;52.462;10.846;2023-12-04T03:24:46;100940;;;
74485;BMP280;62942;52.462;10.846;2023-12-04T03:25:46;100940;;;
74485;BMP280;62942;52.462;10.846;2023-12-04T03:26:56;100940;;;
74485;BMP280;62942;52.462;10.846;2023-12-04T03:27:56;100940;;;
74485;BMP280;62942;52.462;10.846;2023-12-04T03:29:06;100930;;;
74485;BMP280;62942;52.462;10.846;2023-12-04T03:30:16;100930;;;
74485;BMP280;62942;52.462;10.846;2023-12-04T03:31:16;100930;;;
74485;BMP280;62942;52.462;10.846;2023-12-04T03:32:26;100930;;;
74485;BMP280;62942;52.462;10.846;2023-12-04T03:33:26;100920;;;
74485;BMP280;62942;52.462;10.846;2023-12-04T03:34:36;100930;;;
74485;BMP280;62942;52.462;10.846;2023-12-04T03:35:46;100920;;;
74485;BMP280;62942;52.462;10.846;2023-12-04T03:36:56;100930;;;
74485;BMP280;62942;52.462;10.846;2023-12-04T03:37:56;100930;;;
74485;BMP280;62942;52.462;10.846;2023-12-04T03:39:06;100930;;;
74485;BMP280;62942;52.462;10.846;2023-12-04T03:40:16;100930;;;
74485;BMP280;62942;52.462;10.846;2023-12-04T03:41:16;100930;;;
74485;BMP280;62942;52.462;10.846;2023-12-04T03:42:16;100930;;;
74485;BMP280;62942;52.462;10.846;2023-12-04T03:43:26;100930;;;
74485;BMP280;62942;52.462;10.846;2023-12-04T03:44:36;100930;;;
74485;BMP280;62942;52.462;10.846;2023-12-04T03:45:36;100930;;;
74485;BMP280;62942;52.462;10.846;2023-12-04T03:46:46;100930;;;
74485;BMP280;62942;52.462;10.846;2023-12-04T03:47:56;100930;;;
74485;BMP280;62942;52.462;10.846;2023-12-04T03:49:06;100920;;;
74485;BMP280;62942;52.462;10.846;2023-12-04T03:50:06;100920;;;
74485;BMP280;62942;52.462;10.846;2023-12-04T03:51:06;100920;;;
74485;BMP280;62942;52.462;10.846;2023-12-04T03:52:16;100920;;;
74485;BMP280;62942;52.462;10.846;2023-12-04T03:53:26;100920;;;
74485;BMP280;62942;52.462;10.846;2023-12-04T03:54:36;100910;;;
74485;BMP280;62942;52.462;10.846;2023-12-04T03:55:36;100910;;;
74485;BMP280;62942;52.462;10.846;2023-12-04T03:56:46;100910;;;
74485;BMP280;62942;52.462;10.846;2023-12-04T03:57:46;100900;;;
74485;BMP280;62942;52.462;10.846;2023-12-04T03:58:56;100900;;;
74485;BMP280;62942;52.462;10.846;2023-12-04T03:59:56;100900;;;
74485;BMP280;62942;52.462;10.846;2023-12-04T04:01:06;100900;;;
74485;BMP280;62942;52.462;10.846;2023-12-04T04:02:06;100900;;;
74485;BMP280;62942;52.462;10.846;2023-12-04T04:03:16;100900;;;
74485;BMP280;62942;52.462;10.846;2023-12-04T04:04:26;100890;;;
74485;BMP280;62942;52.462;10.846;2023-12-04T04:05:26;100890;;;
74485;BMP280;62942;52.462;10.846;2023-12-04T04:06:36;100890;;;
74485;BMP280;62942;52.462;10.846;2023-12-04T04:07:36;100880;;;
74485;BMP280;62942;52.462;10.846;2023-12-04T04:08:46;100880;;;
74485;BMP280;62942;52.462;10.846;2023-12-04T04:09:46;100880;;;
74485;BMP280;62942;52.462;10.846;2023-12-04T04:10:56;100880;;;
74485;BMP280;62942;52.462;10.846;2023-12-04T04:11:56;100890;;;
74485;BMP280;62942;52.462;10.846;2023-12-04T04:13:06;100880;;;
74485;BMP280;62942;52.462;10.846;2023-12-04T04:14:06;100880;;;
74485;BMP280;62942;52.462;10.846;2023-12-04T04:15:16;100880;;;
74485;BMP280;62942;52.462;10.846;2023-12-04T04:16:16;100890;;;
74485;BMP280;62942;52.462;10.846;2023-12-04T04:17:26;100890;;;
74485;BMP280;62942;52.462;10.846;2023-12-04T04:18:26;100890;;;
74485;BMP280;62942;52.462;10.846;2023-12-04T04:19:36;100880;;;
74485;BMP280;62942;52.462;10.846;2023-12-04T04:20:46;100880;;;
74485;BMP280;62942;52.462;10.846;2023-12-04T04:21:46;100890;;;
74485;BMP280;62942;52.462;10.846;2023-12-04T04:22:47;100890;;;
74485;BMP280;62942;52.462;10.846;2023-12-04T04:23:56;100890;;;
74485;BMP280;62942;52.462;10.846;2023-12-04T04:24:56;100880;;;
74485;BMP280;62942;52.462;10.846;2023-12-04T04:26:06;100890;;;
74485;BMP280;62942;52.462;10.846;2023-12-04T04:27:06;100880;;;
74485;BMP280;62942;52.462;10.846;2023-12-04T04:28:16;100880;;;
74485;BMP280;62942;52.462;10.846;2023-12-04T04:29:26;100870;;;
74485;BMP280;62942;52.462;10.846;2023-12-04T04:30:26;100870;;;
74485;BMP280;62942;52.462;10.846;2023-12-04T04:31:36;100860;;;
74485;BMP280;62942;52.462;10.846;2023-12-04T04:32:36;100860;;;
74485;BMP280;62942;52.462;10.846;2023-12-04T04:33:46;100860;;;
74485;BMP280;62942;52.462;10.846;2023-12-04T04:34:46;100860;;;
74485;BMP280;62942;52.462;10.846;2023-12-04T04:35:56;100860;;;
74485;BMP280;62942;52.462;10.846;2023-12-04T04:37:06;100860;;;
74485;BMP280;62942;52.462;10.846;2023-12-04T04:38:16;100850;;;
74485;BMP280;62942;52.462;10.846;2023-12-04T04:39:26;100860;;;
74485;BMP280;62942;52.462;10.846;2023-12-04T04:40:26;100850;;;
74485;BMP280;62942;52.462;10.846;2023-12-04T04:41:36;100850;;;
74485;BMP280;62942;52.462;10.846;2023-12-04T04:42:36;100850;;;
74485;BMP280;62942;52.462;10.846;2023-12-04T04:43:46;100850;;;
74485;BMP280;62942;52.462;10.846;2023-12-04T04:44:56;100850;;;
74485;BMP280;62942;52.462;10.846;2023-12-04T04:45:56;100850;;;
74485;BMP280;62942;52.462;10.846;2023-12-04T04:47:06;100840;;;
74485;BMP280;62942;52.462;10.846;2023-12-04T04:48:16;100850;;;
74485;BMP280;62942;52.462;10.846;2023-12-04T04:49:26;100850;;;
74485;BMP280;62942;52.462;10.846;2023-12-04T04:50:26;100850;;;
74485;BMP280;62942;52.462;10.846;2023-12-04T04:51:36;100850;;;
74485;BMP280;62942;52.462;10.846;2023-12-04T04:52:36;100840;;;
74485;BMP280;62942;52.462;10.846;2023-12-04T04:53:46;100820;;;
74485;BMP280;62942;52.462;10.846;2023-12-04T04:54:56;100820;;;
74485;BMP280;62942;52.462;10.846;2023-12-04T04:56:07;100820;;;
74485;BMP280;62942;52.462;10.846;2023-12-04T04:57:16;100810;;;
74485;BMP280;62942;52.462;10.846;2023-12-04T04:58:16;100820;;;
74485;BMP280;62942;52.462;10.846;2023-12-04T04:59:26;100810;;;
74485;BMP280;62942;52.462;10.846;2023-12-04T05:00:36;100820;;;
74485;BMP280;62942;52.462;10.846;2023-12-04T05:01:36;100820;;;
74485;BMP280;62942;52.462;10.846;2023-12-04T05:02:46;100820;;;
74485;BMP280;62942;52.462;10.846;2023-12-04T05:03:46;100810;;;
74485;BMP280;62942;52.462;10.846;2023-12-04T05:04:56;100820;;;
74485;BMP280;62942;52.462;10.846;2023-12-04T05:05:56;100820;;;
74485;BMP280;62942;52.462;10.846;2023-12-04T05:07:06;100820;;;
74485;BMP280;62942;52.462;10.846;2023-12-04T05:08:06;100820;;;
74485;BMP280;62942;52.462;10.846;2023-12-04T05:09:16;100810;;;
74485;BMP280;62942;52.462;10.846;2023-12-04T05:10:26;100810;;;
74485;BMP280;62942;52.462;10.846;2023-12-04T05:11:36;100820;;;
74485;BMP280;62942;52.462;10.846;2023-12-04T05:12:46;100810;;;
74485;BMP280;62942;52.462;10.846;2023-12-04T05:13:56;100810;;;
74485;BMP280;62942;52.462;10.846;2023-12-04T05:14:56;100800;;;
74485;BMP280;62942;52.462;10.846;2023-12-04T05:16:06;100800;;;
74485;BMP280;62942;52.462;10.846;2023-12-04T05:17:15;100800;;;
74485;BMP280;62942;52.462;10.846;2023-12-04T05:18:16;100800;;;
74485;BMP280;62942;52.462;10.846;2023-12-04T05:19:26;100790;;;
74485;BMP280;62942;52.462;10.846;2023-12-04T05:20:36;100790;;;
74485;BMP280;62942;52.462;10.846;2023-12-04T05:21:46;100790;;;
74485;BMP280;62942;52.462;10.846;2023-12-04T05:22:56;100780;;;
74485;BMP280;62942;52.462;10.846;2023-12-04T05:24:06;100780;;;
74485;BMP280;62942;52.462;10.846;2023-12-04T05:25:15;100780;;;
74485;BMP280;62942;52.462;10.846;2023-12-04T05:26:16;100780;;;
74485;BMP280;62942;52.462;10.846;2023-12-04T05:27:25;100780;;;
74485;BMP280;62942;52.462;10.846;2023-12-04T05:28:36;100780;;;
74485;BMP280;62942;52.462;10.846;2023-12-04T05:29:46;100790;;;
74485;BMP280;62942;52.462;10.846;2023-12-04T05:30:46;100790;;;
74485;BMP280;62942;52.462;10.846;2023-12-04T05:31:56;100780;;;
74485;BMP280;62942;52.462;10.846;2023-12-04T05:33:06;100780;;;
74485;BMP280;62942;52.462;10.846;2023-12-04T05:34:05;100790;;;
74485;BMP280;62942;52.462;10.846;2023-12-04T05:35:15;100780;;;
74485;BMP280;62942;52.462;10.846;2023-12-04T05:36:26;100770;;;
74485;BMP280;62942;52.462;10.846;2023-12-04T05:37:26;100780;;;
74485;BMP280;62942;52.462;10.846;2023-12-04T05:38:36;100770;;;
74485;BMP280;62942;52.462;10.846;2023-12-04T05:39:45;100760;;;
74485;BMP280;62942;52.462;10.846;2023-12-04T05:40:46;100760;;;
74485;BMP280;62942;52.462;10.846;2023-12-04T05:41:46;100760;;;
74485;BMP280;62942;52.462;10.846;2023-12-04T05:42:55;100750;;;
74485;BMP280;62942;52.462;10.846;2023-12-04T05:44:05;100750;;;
74485;BMP280;62942;52.462;10.846;2023-12-04T05:45:16;100750;;;
74485;BMP280;62942;52.462;10.846;2023-12-04T05:46:25;100750;;;
74485;BMP280;62942;52.462;10.846;2023-12-04T05:47:36;100750;;;
74485;BMP280;62942;52.462;10.846;2023-12-04T05:48:46;100750;;;
74485;BMP280;62942;52.462;10.846;2023-12-04T05:49:55;100750;;;
74485;BMP280;62942;52.462;10.846;2023-12-04T05:51:06;100750;;;
74485;BMP280;62942;52.462;10.846;2023-12-04T05:52:15;100750;;;
74485;BMP280;62942;52.462;10.846;2023-12-04T05:53:25;100750;;;
74485;BMP280;62942;52.462;10.846;2023-12-04T05:54:35;100740;;;
74485;BMP280;62942;52.462;10.846;2023-12-04T05:55:35;100740;;;
74485;BMP280;62942;52.462;10.846;2023-12-04T05:56:46;100740;;;
74485;BMP280;62942;52.462;10.846;2023-12-04T05:57:55;100750;;;
74485;BMP280;62942;52.462;10.846;2023-12-04T05:59:05;100740;;;
74485;BMP280;62942;52.462;10.846;2023-12-04T06:00:06;100750;;;
74485;BMP280;62942;52.462;10.846;2023-12-04T06:01:15;100740;;;
74485;BMP280;62942;52.462;10.846;2023-12-04T06:02:26;100740;;;
74485;BMP280;62942;52.462;10.846;2023-12-04T06:03:35;100740;;;
74485;BMP280;62942;52.462;10.846;2023-12-04T06:04:35;100750;;;
74485;BMP280;62942;52.462;10.846;2023-12-04T06:05:46;100750;;;
74485;BMP280;62942;52.462;10.846;2023-12-04T06:06:55;100750;;;
74485;BMP280;62942;52.462;10.846;2023-12-04T06:08:05;100740;;;
74485;BMP280;62942;52.462;10.846;2023-12-04T06:09:15;100740;;;
74485;BMP280;62942;52.462;10.846;2023-12-04T06:10:15;100750;;;
74485;BMP280;62942;52.462;10.846;2023-12-04T06:11:25;100740;;;
74485;BMP280;62942;52.462;10.846;2023-12-04T06:12:35;100740;;;
74485;BMP280;62942;52.462;10.846;2023-12-04T06:13:35;100750;;;
74485;BMP280;62942;52.462;10.846;2023-12-04T06:14:35;100740;;;
74485;BMP280;62942;52.462;10.846;2023-12-04T06:15:45;100730;;;
74485;BMP280;62942;52.462;10.846;2023-12-04T06:16:46;100740;;;
74485;BMP280;62942;52.462;10.846;2023-12-04T06:17:55;100740;;;
74485;BMP280;62942;52.462;10.846;2023-12-04T06:18:55;100730;;;
74485;BMP280;62942;52.462;10.846;2023-12-04T06:20:06;100730;;;
74485;BMP280;62942;52.462;10.846;2023-12-04T06:21:06;100730;;;
74485;BMP280;62942;52.462;10.846;2023-12-04T06:22:15;100730;;;
74485;BMP280;62942;52.462;10.846;2023-12-04T06:23:26;100730;;;
74485;BMP280;62942;52.462;10.846;2023-12-04T06:24:36;100720;;;
74485;BMP280;62942;52.462;10.846;2023-12-04T06:25:46;100730;;;
74485;BMP280;62942;52.462;10.846;2023-12-04T06:26:45;100730;;;
74485;BMP280;62942;52.462;10.846;2023-12-04T06:27:56;100730;;;
74485;BMP280;62942;52.462;10.846;2023-12-04T06:29:06;100730;;;
74485;BMP280;62942;52.462;10.846;2023-12-04T06:30:16;100730;;;
74485;BMP280;62942;52.462;10.846;2023-12-04T06:31:26;100720;;;
74485;BMP280;62942;52.462;10.846;2023-12-04T06:32:36;100720;;;
74485;BMP280;62942;52.462;10.846;2023-12-04T06:33:46;100720;;;
74485;BMP280;62942;52.462;10.846;2023-12-04T06:34:56;100720;;;
74485;BMP280;62942;52.462;10.846;2023-12-04T06:36:06;100730;;;
74485;BMP280;62942;52.462;10.846;2023-12-04T06:37:16;100720;;;
74485;BMP280;62942;52.462;10.846;2023-12-04T06:38:26;100720;;;
74485;BMP280;62942;52.462;10.846;2023-12-04T06:39:35;100720;;;
74485;BMP280;62942;52.462;10.846;2023-12-04T06:40:36;100720;;;
74485;BMP280;62942;52.462;10.846;2023-12-04T06:41:46;100720;;;
74485;BMP280;62942;52.462;10.846;2023-12-04T06:42:55;100700;;;
74485;BMP280;62942;52.462;10.846;2023-12-04T06:44:06;100710;;;
74485;BMP280;62942;52.462;10.846;2023-12-04T06:45:16;100700;;;
74485;BMP280;62942;52.462;10.846;2023-12-04T06:46:15;100700;;;
74485;BMP280;62942;52.462;10.846;2023-12-04T06:47:26;100700;;;
74485;BMP280;62942;52.462;10.846;2023-12-04T06:48:36;100700;;;
74485;BMP280;62942;52.462;10.846;2023-12-04T06:49:45;100700;;;
74485;BMP280;62942;52.462;10.846;2023-12-04T06:50:55;100710;;;
74485;BMP280;62942;52.462;10.846;2023-12-04T06:52:05;100700;;;
74485;BMP280;62942;52.462;10.846;2023-12-04T06:53:15;100710;;;
74485;BMP280;62942;52.462;10.846;2023-12-04T06:54:15;100700;;;
74485;BMP280;62942;52.462;10.846;2023-12-04T06:55:15;100700;;;
74485;BMP280;62942;52.462;10.846;2023-12-04T06:56:25;100690;;;
74485;BMP280;62942;52.462;10.846;2023-12-04T06:57:35;100680;;;
74485;BMP280;62942;52.462;10.846;2023-12-04T06:58:45;100680;;;
74485;BMP280;62942;52.462;10.846;2023-12-04T06:59:55;100680;;;